createdAt,value
2023-03-16T00:01:40.146Z,6.5
2023-03-16T00:06:40.150Z,6.5
2023-03-16T00:11:40.100Z,6.5
2023-03-16T00:16:40.096Z,6.5
2023-03-16T00:21:40.082Z,6
2023-03-16T00:26:40.070Z,6
2023-03-16T00:31:40.032Z,6
2023-03-16T00:36:40.046Z,6
2023-03-16T00:41:39.998Z,7
2023-03-16T00:46:39.978Z,7
2023-03-16T00:51:39.961Z,6.5
2023-03-16T00:56:39.942Z,6.5
2023-03-16T01:01:39.982Z,6
2023-03-16T01:06:39.912Z,4
2023-03-16T01:11:39.888Z,6
2023-03-16T01:16:39.877Z,4.5
2023-03-16T01:21:39.853Z,4.5
2023-03-16T01:26:39.891Z,3.5
2023-03-16T01:31:39.833Z,4
2023-03-16T01:36:39.809Z,0.5
2023-03-16T01:41:39.806Z,0
2023-03-16T01:46:39.779Z,0
2023-03-16T01:51:39.766Z,0
2023-03-16T01:56:39.742Z,0
2023-03-16T02:01:39.733Z,0
2023-03-16T02:06:39.708Z,0
2023-03-16T02:11:39.702Z,0
2023-03-16T02:16:39.680Z,0
2023-03-16T02:21:39.666Z,0
2023-03-16T02:26:39.686Z,0
2023-03-16T02:31:39.622Z,0
2023-03-16T02:36:39.617Z,0
2023-03-16T02:41:39.606Z,0
2023-03-16T02:46:39.574Z,0
2023-03-16T02:51:39.570Z,0
2023-03-16T02:56:39.546Z,0
2023-03-16T03:01:39.524Z,0
2023-03-16T03:06:39.501Z,0
2023-03-16T03:11:39.493Z,0
2023-03-16T03:16:39.482Z,0
2023-03-16T03:21:39.518Z,0
2023-03-16T03:26:39.455Z,0
2023-03-16T03:31:39.423Z,0
2023-03-16T03:36:39.404Z,0
2023-03-16T03:41:39.412Z,0
2023-03-16T03:46:39.374Z,0
2023-03-16T03:51:39.364Z,0
2023-03-16T03:56:39.350Z,0
2023-03-16T04:01:39.323Z,0
2023-03-16T04:06:39.316Z,0
2023-03-16T04:11:39.292Z,0
2023-03-16T04:16:39.272Z,0
2023-03-16T04:21:39.247Z,0
2023-03-16T04:26:39.265Z,0
2023-03-16T04:31:39.288Z,0
2023-03-16T04:36:39.214Z,0
2023-03-16T04:41:39.185Z,0
2023-03-16T04:46:39.176Z,0
2023-03-16T04:51:39.158Z,0
2023-03-16T04:56:39.130Z,0
2023-03-16T05:01:39.132Z,0
2023-03-16T05:06:39.108Z,0
2023-03-16T05:11:39.113Z,0
2023-03-16T05:16:39.084Z,0
2023-03-16T05:21:39.061Z,0
2023-03-16T05:26:39.038Z,0
2023-03-16T05:31:39.019Z,0
2023-03-16T05:36:39.048Z,0
2023-03-16T05:41:39.014Z,0
2023-03-16T05:46:38.977Z,0
2023-03-16T05:51:38.965Z,0
2023-03-16T05:56:38.942Z,0
2023-03-16T06:01:38.931Z,0
2023-03-16T06:06:38.913Z,0
2023-03-16T06:11:38.890Z,0
2023-03-16T06:16:38.883Z,0
2023-03-16T06:21:39.000Z,0
2023-03-16T06:26:38.858Z,0
2023-03-16T06:31:38.828Z,0
2023-03-16T06:36:38.816Z,0
2023-03-16T06:41:38.908Z,0
2023-03-16T06:46:38.779Z,0
2023-03-16T06:51:38.803Z,0
2023-03-16T06:56:38.855Z,0
2023-03-16T07:01:38.788Z,0
2023-03-16T07:06:38.710Z,0
2023-03-16T07:11:38.712Z,0
2023-03-16T07:16:38.695Z,0
2023-03-16T07:21:38.658Z,0
2023-03-16T07:26:38.641Z,0
2023-03-16T07:31:38.620Z,0
2023-03-16T07:36:38.628Z,0
2023-03-16T07:41:38.745Z,0
2023-03-16T07:46:38.573Z,0
2023-03-16T07:51:38.573Z,0
2023-03-16T07:56:38.543Z,0
2023-03-16T08:01:38.518Z,0
2023-03-16T08:06:38.504Z,0
2023-03-16T08:11:38.548Z,0
2023-03-16T08:16:38.493Z,0
2023-03-16T08:21:38.504Z,0
2023-03-16T08:26:38.432Z,0
2023-03-16T08:31:38.446Z,0
2023-03-16T08:36:38.394Z,0
2023-03-16T08:41:38.433Z,0
2023-03-16T08:46:38.353Z,0
2023-03-16T08:51:38.391Z,0
2023-03-16T08:56:38.361Z,0
2023-03-16T09:01:38.297Z,0
2023-03-16T09:06:38.272Z,0
2023-03-16T09:11:38.259Z,0
2023-03-16T09:16:38.242Z,0
2023-03-16T09:21:38.229Z,0
2023-03-16T09:26:38.205Z,0
2023-03-16T09:31:38.181Z,98.5
2023-03-16T09:36:38.367Z,97.5
2023-03-16T09:41:38.353Z,93
2023-03-16T09:46:38.308Z,87
2023-03-16T09:51:38.094Z,79.5
2023-03-16T09:56:38.107Z,72.5
2023-03-16T10:01:38.134Z,71.5
2023-03-16T10:06:38.032Z,66
2023-03-16T10:11:38.265Z,64.5
2023-03-16T10:16:38.172Z,61
2023-03-16T10:21:38.149Z,60.5
2023-03-16T10:26:38.110Z,59.5
2023-03-16T10:31:38.056Z,68
2023-03-16T10:36:38.093Z,66
2023-03-16T10:41:38.096Z,69
2023-03-16T10:46:38.013Z,71
2023-03-16T10:51:37.955Z,75
2023-03-16T10:56:38.031Z,71.5
2023-03-16T11:01:37.934Z,64
2023-03-16T11:06:37.978Z,67.5
2023-03-16T11:11:37.781Z,67
2023-03-16T11:16:37.856Z,67
2023-03-16T11:21:37.796Z,65
2023-03-16T11:26:37.840Z,67
2023-03-16T11:31:37.843Z,70.5
2023-03-16T11:36:37.720Z,77
2023-03-16T11:41:37.826Z,67.5
2023-03-16T11:46:37.773Z,67
2023-03-16T11:51:37.806Z,62.5
2023-03-16T11:56:37.751Z,64.5
2023-03-16T12:01:37.645Z,61.5
2023-03-16T12:06:37.653Z,62
2023-03-16T12:11:37.725Z,63.5
2023-03-16T12:16:37.627Z,62
2023-03-16T12:21:37.462Z,60.5
2023-03-16T12:26:37.472Z,62.5
2023-03-16T12:31:37.463Z,61
2023-03-16T12:36:37.407Z,63
2023-03-16T12:41:37.380Z,67
2023-03-16T12:46:37.405Z,61.5
2023-03-16T12:51:37.349Z,57.5
2023-03-16T12:56:37.301Z,58
2023-03-16T13:01:37.285Z,58.5
2023-03-16T13:06:37.257Z,60.5
2023-03-16T13:11:37.254Z,60
2023-03-16T13:16:37.259Z,63
2023-03-16T13:21:37.209Z,63
2023-03-16T13:26:37.199Z,63.5
2023-03-16T13:31:37.184Z,66.5
2023-03-16T13:36:37.189Z,66.5
2023-03-16T13:41:37.118Z,68
2023-03-16T13:46:37.156Z,64.5
2023-03-16T13:51:37.131Z,66.5
2023-03-16T13:56:37.153Z,68.5
2023-03-16T14:01:37.028Z,69
2023-03-16T14:06:37.056Z,71
2023-03-16T14:11:36.984Z,74
2023-03-16T14:16:36.976Z,75.5
2023-03-16T14:21:36.979Z,77.5
2023-03-16T14:26:36.938Z,78
2023-03-16T14:31:36.911Z,80.5
2023-03-16T14:36:36.945Z,79
2023-03-16T14:41:36.868Z,85
2023-03-16T14:46:36.848Z,86
2023-03-16T14:51:36.904Z,87
2023-03-16T14:56:36.810Z,88.5
2023-03-16T15:01:36.969Z,84.5
2023-03-16T15:06:36.787Z,81.5
2023-03-16T15:11:36.797Z,84
2023-03-16T15:16:36.784Z,83.5
2023-03-16T15:21:36.703Z,79.5
2023-03-16T15:26:36.741Z,86
2023-03-16T15:31:36.679Z,86
2023-03-16T15:36:36.763Z,87.5
2023-03-16T15:41:36.622Z,85.5
2023-03-16T15:46:36.597Z,88
2023-03-16T15:51:36.601Z,84
2023-03-16T15:56:36.655Z,86
2023-03-16T16:01:36.707Z,88
2023-03-16T16:06:36.620Z,87.5
2023-03-16T16:11:36.592Z,88.5
2023-03-16T16:16:36.613Z,85.5
2023-03-16T16:21:36.532Z,85.5
2023-03-16T16:26:36.429Z,84.5
2023-03-16T16:31:36.610Z,87
2023-03-16T16:36:36.520Z,87.5
2023-03-16T16:41:36.450Z,86
2023-03-16T16:46:36.482Z,92
2023-03-16T16:51:36.334Z,93
2023-03-16T16:56:36.457Z,93.5
2023-03-16T17:01:36.317Z,93.5
2023-03-16T17:06:36.275Z,94
2023-03-16T17:11:36.258Z,95
2023-03-16T17:16:36.257Z,97
2023-03-16T17:21:36.210Z,96
2023-03-16T17:26:36.203Z,98
2023-03-16T17:31:36.204Z,100
2023-03-16T17:36:36.163Z,99.5
2023-03-16T17:41:36.130Z,100
2023-03-16T17:46:36.157Z,99.5
2023-03-16T17:51:36.101Z,100
2023-03-16T17:56:36.080Z,100
2023-03-16T18:01:36.059Z,100
2023-03-16T18:06:36.031Z,100
2023-03-16T18:11:36.036Z,100
2023-03-16T18:16:35.991Z,100
2023-03-16T18:21:35.987Z,100
2023-03-16T18:26:35.949Z,100
2023-03-16T18:31:35.941Z,100
2023-03-16T18:36:35.973Z,100
2023-03-16T18:41:35.960Z,100
2023-03-16T18:46:35.876Z,100
2023-03-16T18:51:35.932Z,100
2023-03-16T18:56:35.881Z,100
2023-03-16T19:01:35.820Z,100
2023-03-16T19:06:35.795Z,100
2023-03-16T19:11:35.799Z,100
2023-03-16T19:16:35.755Z,100
2023-03-16T19:21:35.735Z,100
2023-03-16T19:26:35.720Z,100
2023-03-16T19:31:35.698Z,100
2023-03-16T19:36:35.691Z,100
2023-03-16T19:41:35.655Z,100
2023-03-16T19:46:35.652Z,100
2023-03-16T19:51:35.660Z,100
2023-03-16T19:56:35.708Z,100
2023-03-16T20:01:35.589Z,1
2023-03-16T20:06:35.572Z,2.5
2023-03-16T20:11:35.547Z,3
2023-03-16T20:16:35.534Z,2.5
2023-03-16T20:21:35.559Z,3
2023-03-16T20:26:35.608Z,2.5
2023-03-16T20:31:35.533Z,2
2023-03-16T20:36:35.472Z,1.5
2023-03-16T20:41:35.549Z,1
2023-03-16T20:46:35.432Z,0
2023-03-16T20:51:35.398Z,0
2023-03-16T20:56:35.409Z,0
2023-03-16T21:01:35.360Z,0
2023-03-16T21:06:35.346Z,0
2023-03-16T21:11:35.311Z,0
2023-03-16T21:16:35.360Z,0
2023-03-16T21:21:35.281Z,0
2023-03-16T21:26:35.378Z,0
2023-03-16T21:31:35.296Z,0
2023-03-16T21:36:35.223Z,0
2023-03-16T21:41:35.211Z,0
2023-03-16T21:46:35.212Z,0
2023-03-16T21:51:35.180Z,0
2023-03-16T21:56:35.233Z,0
2023-03-16T22:01:35.122Z,0
2023-03-16T22:06:35.106Z,0
2023-03-16T22:11:35.187Z,0
2023-03-16T22:16:35.104Z,0
2023-03-16T22:21:35.191Z,0
2023-03-16T22:26:35.117Z,0
2023-03-16T22:31:35.021Z,0
2023-03-16T22:36:34.991Z,0
2023-03-16T22:41:34.980Z,0
2023-03-16T22:46:35.032Z,0
2023-03-16T22:51:35.001Z,0
2023-03-16T22:56:34.928Z,0
2023-03-16T23:01:34.905Z,0
2023-03-16T23:06:34.885Z,0
2023-03-16T23:11:34.894Z,0
2023-03-16T23:16:34.847Z,0
2023-03-16T23:21:34.864Z,0
2023-03-16T23:26:34.924Z,0
2023-03-16T23:31:34.804Z,0
2023-03-16T23:36:34.883Z,0
2023-03-16T23:41:34.825Z,0
2023-03-16T23:46:34.780Z,0
2023-03-16T23:51:34.727Z,0
2023-03-16T23:56:34.762Z,0
